createdAt,value
2023-12-03T00:01:09.489Z,1017.66
2023-12-03T00:05:08.769Z,1017.64
2023-12-03T00:10:08.263Z,1017.72
2023-12-03T00:15:08.495Z,1017.63
2023-12-03T00:20:08.974Z,1017.74
2023-12-03T00:25:08.247Z,1017.74
2023-12-03T00:30:08.595Z,1017.8
2023-12-03T00:35:08.687Z,1017.8
2023-12-03T00:40:08.856Z,1017.86
2023-12-03T00:45:09.116Z,1017.8
2023-12-03T00:50:08.345Z,1017.79
2023-12-03T00:55:08.552Z,1017.85
2023-12-03T01:00:08.794Z,1017.89
2023-12-03T01:05:08.381Z,1017.95
2023-12-03T01:10:08.697Z,1017.94
2023-12-03T01:15:08.986Z,1017.92
2023-12-03T01:20:08.187Z,1017.91
2023-12-03T01:25:08.809Z,1017.87
2023-12-03T01:30:09.005Z,1017.93
2023-12-03T01:35:08.104Z,1018.06
2023-12-03T01:40:08.298Z,1018.11
2023-12-03T01:45:08.613Z,1018.06
2023-12-03T01:50:08.904Z,1018.18
2023-12-03T01:55:09.166Z,1018.28
2023-12-03T02:00:08.513Z,1018.3
2023-12-03T02:05:09.086Z,1018.3
2023-12-03T02:10:08.297Z,1018.36
2023-12-03T02:15:08.613Z,1018.37
2023-12-03T02:20:08.796Z,1018.38
2023-12-03T02:25:09.048Z,1018.43
2023-12-03T02:30:08.249Z,1018.46
2023-12-03T02:35:08.524Z,1018.46
2023-12-03T02:40:08.727Z,1018.5
2023-12-03T02:45:08.994Z,1018.55
2023-12-03T02:50:08.180Z,1018.58
2023-12-03T02:55:08.328Z,1018.58
2023-12-03T03:00:08.528Z,1018.58
2023-12-03T03:05:08.680Z,1018.59
2023-12-03T03:10:08.799Z,1018.44
2023-12-03T03:15:09.100Z,1018.58
2023-12-03T03:20:08.235Z,1018.58
2023-12-03T03:25:08.337Z,1018.56
2023-12-03T03:30:08.611Z,1018.58
2023-12-03T03:35:08.816Z,1018.51
2023-12-03T03:40:08.956Z,1018.51
2023-12-03T03:45:08.116Z,1018.61
2023-12-03T03:50:08.341Z,1018.6
2023-12-03T03:55:16.808Z,1018.56
2023-12-03T04:00:08.945Z,1018.56
2023-12-03T04:05:08.061Z,1018.62
2023-12-03T04:10:08.299Z,1018.65
2023-12-03T04:15:08.545Z,1018.6
2023-12-03T04:20:08.744Z,1018.6
2023-12-03T04:25:08.810Z,1018.85
2023-12-03T04:30:09.023Z,1018.77
2023-12-03T04:35:08.176Z,1018.73
2023-12-03T04:40:08.371Z,1018.82
2023-12-03T04:45:08.492Z,1018.83
2023-12-03T04:50:08.590Z,1018.9
2023-12-03T04:55:08.795Z,1018.88
2023-12-03T05:00:09.102Z,1018.9
2023-12-03T05:05:02.408Z,1018.91
2023-12-03T05:10:02.811Z,1018.92
2023-12-03T05:15:03.229Z,1018.95
2023-12-03T05:20:02.639Z,1018.95
2023-12-03T05:25:03.111Z,1019.05
2023-12-03T05:30:02.419Z,1018.96
2023-12-03T05:35:02.710Z,1019.09
2023-12-03T05:40:03.085Z,1019.06
2023-12-03T05:45:02.387Z,1019.06
2023-12-03T05:50:02.878Z,1019.25
2023-12-03T05:55:02.223Z,1019.39
2023-12-03T06:00:02.486Z,1019.39
2023-12-03T06:05:02.798Z,1019.39
2023-12-03T06:10:03.184Z,1019.34
2023-12-03T06:15:02.490Z,1019.41
2023-12-03T06:20:02.864Z,1019.36
2023-12-03T06:25:04.821Z,1019.36
2023-12-03T06:30:03.005Z,1019.34
2023-12-03T06:35:02.258Z,1019.44
2023-12-03T06:40:02.711Z,1019.41
2023-12-03T06:45:03.054Z,1019.41
2023-12-03T06:50:02.331Z,1019.5
2023-12-03T06:55:02.716Z,1019.33
2023-12-03T07:00:03.055Z,1019.43
2023-12-03T07:05:02.303Z,1019.43
2023-12-03T07:10:02.706Z,1019.44
2023-12-03T07:15:03.077Z,1019.48
2023-12-03T07:20:02.219Z,1019.6
2023-12-03T07:25:02.490Z,1019.69
2023-12-03T07:30:02.791Z,1019.66
2023-12-03T07:35:03.035Z,1019.71
2023-12-03T07:40:02.451Z,1019.71
2023-12-03T07:45:02.828Z,1019.71
2023-12-03T07:50:03.096Z,1019.71
2023-12-03T07:55:02.344Z,1020.08
2023-12-03T08:00:02.528Z,1020.05
2023-12-03T08:05:02.930Z,1020.16
2023-12-03T08:10:02.315Z,1020.15
2023-12-03T08:15:02.642Z,1020.14
2023-12-03T08:20:02.935Z,1020.01
2023-12-03T08:25:02.291Z,1020.09
2023-12-03T08:30:02.594Z,1020.07
2023-12-03T08:35:02.911Z,1020.03
2023-12-03T08:40:03.249Z,1019.98
2023-12-03T08:45:02.392Z,1019.97
2023-12-03T08:50:02.619Z,1020.0
2023-12-03T08:55:02.889Z,1020.05
2023-12-03T09:00:03.278Z,1020.08
2023-12-03T09:05:02.648Z,1020.2
2023-12-03T09:10:03.054Z,1020.23
2023-12-03T09:15:02.287Z,1020.13
2023-12-03T09:20:02.912Z,1020.24
2023-12-03T09:25:03.371Z,1020.3
2023-12-03T09:30:02.718Z,1020.28
2023-12-03T09:35:03.066Z,1020.37
2023-12-03T09:40:02.404Z,1020.31
2023-12-03T09:45:02.691Z,1020.36
2023-12-03T09:50:03.047Z,1020.34
2023-12-03T09:55:02.322Z,1020.43
2023-12-03T10:00:02.728Z,1020.45
2023-12-03T10:05:03.240Z,1020.46
2023-12-03T10:10:02.732Z,1020.48
2023-12-03T10:15:03.065Z,1020.54
2023-12-03T10:20:02.372Z,1020.46
2023-12-03T10:25:02.646Z,1020.37
2023-12-03T10:30:03.029Z,1020.28
2023-12-03T10:35:02.206Z,1020.18
2023-12-03T10:40:02.559Z,1020.21
2023-12-03T10:45:02.800Z,1020.14
2023-12-03T10:50:02.959Z,1020.18
2023-12-03T10:55:02.251Z,1020.17
2023-12-03T11:00:03.036Z,1020.08
2023-12-03T11:05:02.300Z,1020.08
2023-12-03T11:10:02.709Z,1020.0
2023-12-03T11:15:03.098Z,1019.86
2023-12-03T11:20:02.499Z,1019.97
2023-12-03T11:25:03.185Z,1019.87
2023-12-03T11:30:02.540Z,1019.84
2023-12-03T11:35:03.078Z,1019.81
2023-12-03T11:40:02.472Z,1019.71
2023-12-03T11:45:02.775Z,1019.71
2023-12-03T11:50:02.940Z,1019.61
2023-12-03T11:55:02.335Z,1019.56
2023-12-03T12:00:02.682Z,1019.55
2023-12-03T12:05:02.973Z,1019.44
2023-12-03T12:10:02.528Z,1019.44
2023-12-03T12:15:02.949Z,1019.39
2023-12-03T12:20:12.424Z,1019.3
2023-12-03T12:25:03.468Z,1019.32
2023-12-03T12:30:14.077Z,1019.3
2023-12-03T12:35:02.603Z,1019.28
2023-12-03T12:40:02.929Z,1019.31
2023-12-03T12:45:02.423Z,1019.31
2023-12-03T12:50:02.687Z,1019.31
2023-12-03T12:55:06.938Z,1019.16
2023-12-03T13:00:03.103Z,1019.1
2023-12-03T13:05:02.297Z,1019.18
2023-12-03T13:10:02.836Z,1019.25
2023-12-03T13:15:03.168Z,1019.19
2023-12-03T13:20:02.597Z,1019.12
2023-12-03T13:25:03.162Z,1019.1
2023-12-03T13:30:02.442Z,1019.1
2023-12-03T13:35:06.170Z,1019.04
2023-12-03T13:40:02.917Z,1018.98
2023-12-03T13:45:02.238Z,1018.97
2023-12-03T13:50:02.703Z,1018.98
2023-12-03T13:55:03.039Z,1018.87
2023-12-03T14:00:02.454Z,1018.76
2023-12-03T14:05:12.771Z,1018.79
2023-12-03T14:10:03.229Z,1018.79
2023-12-03T14:15:02.603Z,1018.59
2023-12-03T14:20:03.082Z,1018.59
2023-12-03T14:25:02.584Z,1018.46
2023-12-03T14:30:02.894Z,1018.46
2023-12-03T14:35:03.272Z,1018.58
2023-12-03T14:40:02.592Z,1018.67
2023-12-03T14:45:02.826Z,1018.71
2023-12-03T14:50:03.066Z,1018.71
2023-12-03T14:55:02.437Z,1018.72
2023-12-03T15:00:02.876Z,1018.76
2023-12-03T15:05:03.306Z,1018.75
2023-12-03T15:10:02.672Z,1018.75
2023-12-03T15:15:03.255Z,1018.67
2023-12-03T15:20:02.861Z,1018.63
2023-12-03T15:25:02.211Z,1018.61
2023-12-03T15:30:02.685Z,1018.55
2023-12-03T15:35:02.967Z,1018.52
2023-12-03T15:40:02.308Z,1018.56
2023-12-03T15:45:02.616Z,1018.47
2023-12-03T15:50:02.867Z,1018.48
2023-12-03T15:55:12.387Z,1018.32
2023-12-03T16:00:02.767Z,1018.31
2023-12-03T16:05:03.314Z,1018.29
2023-12-03T16:10:06.121Z,1018.23
2023-12-03T16:15:02.800Z,1018.23
2023-12-03T16:20:03.154Z,1018.14
2023-12-03T16:25:02.616Z,1018.07
2023-12-03T16:30:03.061Z,1018.04
2023-12-03T16:35:02.489Z,1017.94
2023-12-03T16:40:02.871Z,1017.94
2023-12-03T16:45:03.160Z,1017.81
2023-12-03T16:50:02.575Z,1017.71
2023-12-03T16:55:03.049Z,1017.63
2023-12-03T17:00:02.857Z,1017.63
2023-12-03T17:05:03.342Z,1017.58
2023-12-03T17:10:02.915Z,1017.59
2023-12-03T17:15:02.353Z,1017.54
2023-12-03T17:20:02.744Z,1017.51
2023-12-03T17:25:03.206Z,1017.52
2023-12-03T17:30:02.545Z,1017.49
2023-12-03T17:35:03.150Z,1017.49
2023-12-03T17:40:02.696Z,1017.38
2023-12-03T17:45:03.363Z,1017.26
2023-12-03T17:50:02.693Z,1017.15
2023-12-03T17:55:02.901Z,1017.07
2023-12-03T18:00:02.194Z,1017.0
2023-12-03T18:05:02.605Z,1017.05
2023-12-03T18:10:03.077Z,1016.93
2023-12-03T18:15:02.506Z,1016.99
2023-12-03T18:20:02.838Z,1016.99
2023-12-03T18:25:03.223Z,1016.78
2023-12-03T18:30:02.517Z,1016.78
2023-12-03T18:35:02.817Z,1016.78
2023-12-03T18:40:03.505Z,1016.77
2023-12-03T18:45:03.018Z,1016.7
2023-12-03T18:50:02.287Z,1016.63
2023-12-03T18:55:02.637Z,1016.6
2023-12-03T19:00:03.020Z,1016.66
2023-12-03T19:05:02.473Z,1016.57
2023-12-03T19:10:02.932Z,1016.47
2023-12-03T19:15:02.375Z,1016.35
2023-12-03T19:20:02.735Z,1016.37
2023-12-03T19:25:03.067Z,1016.4
2023-12-03T19:30:02.430Z,1016.34
2023-12-03T19:35:02.797Z,1016.29
2023-12-03T19:40:03.342Z,1016.24
2023-12-03T19:45:02.750Z,1016.27
2023-12-03T19:50:03.171Z,1016.17
2023-12-03T19:55:02.605Z,1016.22
2023-12-03T20:00:03.172Z,1016.19
2023-12-03T20:05:02.636Z,1016.05
2023-12-03T20:10:03.220Z,1016.03
2023-12-03T20:15:02.646Z,1015.93
2023-12-03T20:20:03.084Z,1015.79
2023-12-03T20:25:02.562Z,1015.77
2023-12-03T20:30:03.082Z,1015.68
2023-12-03T20:35:02.350Z,1015.61
2023-12-03T20:40:02.636Z,1015.56
2023-12-03T20:45:03.158Z,1015.49
2023-12-03T20:50:02.569Z,1015.39
2023-12-03T20:55:03.020Z,1015.38
2023-12-03T21:00:02.587Z,1015.35
2023-12-03T21:05:03.065Z,1015.27
2023-12-03T21:10:02.568Z,1015.21
2023-12-03T21:15:02.815Z,1015.12
2023-12-03T21:20:03.222Z,1015.09
2023-12-03T21:25:02.611Z,1015.1
2023-12-03T21:30:02.962Z,1015.08
2023-12-03T21:35:02.300Z,1015.18
2023-12-03T21:40:02.694Z,1015.01
2023-12-03T21:45:03.065Z,1015.01
2023-12-03T21:50:02.435Z,1014.88
2023-12-03T21:55:02.863Z,1014.85
2023-12-03T22:00:02.372Z,1014.81
2023-12-03T22:05:02.737Z,1014.72
2023-12-03T22:10:03.138Z,1014.67
2023-12-03T22:15:02.513Z,1014.67
2023-12-03T22:20:02.907Z,1014.54
2023-12-03T22:25:02.390Z,1014.42
2023-12-03T22:30:06.686Z,1014.39
2023-12-03T22:35:02.339Z,1014.39
2023-12-03T22:40:02.794Z,1014.33
2023-12-03T22:45:03.911Z,1014.28
2023-12-03T22:50:04.829Z,1014.29
2023-12-03T22:55:03.378Z,1014.29
2023-12-03T23:00:02.869Z,1014.05
2023-12-03T23:05:24.854Z,1014.03
2023-12-03T23:10:08.241Z,1013.92
2023-12-03T23:15:08.505Z,1013.92
2023-12-03T23:20:08.869Z,1013.87
2023-12-03T23:25:08.164Z,1013.82
2023-12-03T23:30:08.437Z,1013.7
2023-12-03T23:35:08.693Z,1013.63
2023-12-03T23:40:09.673Z,1013.71
2023-12-03T23:45:08.962Z,1013.49
2023-12-03T23:50:08.153Z,1013.47
2023-12-03T23:55:08.382Z,1013.27
